Terminal Aerodrome Forecast
Issued by NWS

Home | Current Version | Previous Version | Text Only | Print | Product List | Glossary On
Versions: 1 2 3 4 5 6 7 8 9 10 11 12 13 14 15 16 17 18 19 20 21 22 23 24 25 26
000
FTUS45 KGJT 232341
TAFVEL
TAF
KVEL 232341Z 2400/2424 16003KT P6SM VCSH OVC006
     FM240200 VRB03KT 3SM BR OVC025
     FM240600 VRB03KT 4SM BR OVC015
     FM241300 06006KT 2SM BR OVC009
     FM241700 29002KT P6SM VCSH OVC015=

USA.gov is the U.S. government's official web portal to all federal, state and local government web resources and services.